Time;durP1;ratioP1;P1;durP2;ratioP2;P2;SDS_P1;SDS_P2;PMS_P1;PMS_P2;Temp;Humidity;BMP_temperature;BMP_pressure;BME280_temperature;BME280_humidity;BME280_pressure;Samples;Min_cycle;Max_cycle;Signal;HPM_P1;HPM_P2
2024/02/18 00:00:08;;;;;;;209.73;196.90;;;11.20;99.90;;;;;;5034880;28;20041;-75
2024/02/18 00:02:34;;;;;;;168.85;158.18;;;11.20;99.90;;;;;;5035160;28;20462;-75
2024/02/18 00:05:02;;;;;;;156.07;146.85;;;11.20;99.90;;;;;;5033220;28;20042;-75
2024/02/18 00:07:28;;;;;;;167.07;156.95;;;11.20;99.90;;;;;;5035074;28;20046;-75
2024/02/18 00:09:55;;;;;;;183.38;172.45;;;11.20;99.90;;;;;;5035343;28;20037;-75
2024/02/18 00:12:24;;;;;;;191.68;179.75;;;11.00;99.90;;;;;;5034011;28;20029;-75
2024/02/18 00:14:51;;;;;;;171.57;161.32;;;11.00;99.90;;;;;;5034945;28;20045;-75
2024/02/18 00:17:18;;;;;;;180.05;169.77;;;11.00;99.90;;;;;;5033773;28;20044;-75
2024/02/18 00:19:44;;;;;;;218.60;204.90;;;11.00;99.90;;;;;;5034703;28;20066;-75
2024/02/18 00:22:10;;;;;;;238.70;224.32;;;10.90;99.90;;;;;;5033462;28;20386;-75
2024/02/18 00:24:36;;;;;;;237.93;223.35;;;10.90;99.90;;;;;;5034663;28;20045;-75
2024/02/18 00:27:03;;;;;;;229.35;214.95;;;11.00;99.90;;;;;;5034254;28;20391;-75
2024/02/18 00:29:29;;;;;;;232.13;217.40;;;10.90;99.90;;;;;;5034221;28;20037;-75
2024/02/18 00:31:55;;;;;;;231.52;217.93;;;11.00;99.90;;;;;;5034065;28;20459;-75
2024/02/18 00:34:21;;;;;;;221.07;208.30;;;11.00;99.90;;;;;;5034703;28;20030;-75
2024/02/18 00:36:48;;;;;;;218.00;205.25;;;11.00;99.90;;;;;;5034316;28;20490;-75
2024/02/18 00:39:14;;;;;;;247.02;232.27;;;11.00;99.90;;;;;;5034452;28;20398;-75
2024/02/18 00:41:43;;;;;;;228.52;214.95;;;11.00;99.90;;;;;;5030760;28;20041;-75
2024/02/18 00:44:09;;;;;;;260.92;244.90;;;10.90;99.90;;;;;;5034500;28;20367;-75
2024/02/18 00:46:36;;;;;;;261.67;245.55;;;11.00;99.90;;;;;;5033372;28;20038;-75
2024/02/18 00:49:02;;;;;;;246.82;231.57;;;10.90;99.90;;;;;;5034360;28;20033;-74
2024/02/18 00:51:28;;;;;;;246.95;231.90;;;10.90;99.90;;;;;;5033963;28;20052;-75
2024/02/18 00:53:54;;;;;;;245.00;229.98;;;10.90;99.90;;;;;;5034323;28;20036;-75
2024/02/18 00:56:20;;;;;;;216.93;203.60;;;11.00;99.90;;;;;;5033752;28;20025;-75
2024/02/18 00:58:48;;;;;;;218.88;205.32;;;11.00;99.90;;;;;;5032979;28;20034;-74
2024/02/18 01:01:14;;;;;;;179.52;168.52;;;11.00;99.90;;;;;;5033133;28;20042;-75
2024/02/18 01:03:40;;;;;;;174.13;163.10;;;10.90;99.90;;;;;;5034098;28;20474;-75
2024/02/18 01:06:06;;;;;;;212.52;199.43;;;11.00;99.90;;;;;;5033683;28;20029;-74
2024/02/18 01:08:32;;;;;;;208.07;195.30;;;11.00;99.90;;;;;;5034209;28;20025;-75
2024/02/18 01:10:59;;;;;;;184.60;173.27;;;11.00;99.90;;;;;;5033434;28;20073;-75
2024/02/18 01:13:25;;;;;;;174.65;164.02;;;10.90;99.90;;;;;;5032939;28;20026;-75
2024/02/18 01:15:51;;;;;;;184.45;173.60;;;10.80;99.90;;;;;;5032662;28;20037;-75
2024/02/18 01:18:17;;;;;;;182.65;171.98;;;10.80;99.90;;;;;;5032177;28;20037;-75
2024/02/18 01:20:43;;;;;;;183.65;172.52;;;10.80;99.90;;;;;;5033537;28;20495;-74
2024/02/18 01:23:10;;;;;;;203.82;191.40;;;10.80;99.90;;;;;;5033674;28;20021;-75
2024/02/18 01:25:36;;;;;;;203.07;190.85;;;10.90;99.90;;;;;;5033116;28;20049;-75
2024/02/18 01:28:03;;;;;;;178.52;167.90;;;10.90;99.90;;;;;;5033842;28;20030;-75
2024/02/18 01:30:29;;;;;;;175.48;164.82;;;10.90;99.90;;;;;;5032825;28;20049;-75
2024/02/18 01:32:55;;;;;;;168.82;158.65;;;11.00;99.90;;;;;;5033588;28;20033;-75
2024/02/18 01:35:21;;;;;;;179.73;168.63;;;10.90;99.90;;;;;;5031816;28;20034;-75
2024/02/18 01:37:48;;;;;;;206.20;193.38;;;10.90;99.90;;;;;;5032993;28;20040;-75
2024/02/18 01:40:14;;;;;;;163.13;152.75;;;11.00;99.90;;;;;;5032736;28;20033;-75
2024/02/18 01:42:40;;;;;;;217.15;203.60;;;11.00;99.90;;;;;;5033273;28;20577;-75
2024/02/18 01:45:06;;;;;;;171.00;160.55;;;11.00;99.90;;;;;;5031655;28;20052;-75
2024/02/18 01:47:37;;;;;;;168.07;157.57;;;11.00;99.90;;;;;;5032639;28;20022;-75
2024/02/18 01:50:04;;;;;;;153.60;143.60;;;10.90;99.90;;;;;;5031946;28;20038;-74
2024/02/18 01:52:30;;;;;;;175.30;163.90;;;10.90;99.90;;;;;;5032420;28;20048;-75
2024/02/18 01:54:56;;;;;;;151.25;141.77;;;11.00;99.90;;;;;;5032422;28;20493;-75
2024/02/18 01:57:26;;;;;;;165.98;155.98;;;11.00;99.90;;;;;;5031719;28;20033;-75
2024/02/18 01:59:52;;;;;;;156.57;147.13;;;11.00;99.90;;;;;;5032754;28;20080;-74
2024/02/18 02:02:18;;;;;;;167.90;157.13;;;11.00;99.90;;;;;;5031635;28;20042;-75
2024/02/18 02:04:44;;;;;;;187.85;175.75;;;11.00;99.90;;;;;;5032995;28;20052;-75
2024/02/18 02:07:11;;;;;;;181.23;169.65;;;11.00;99.90;;;;;;5030660;28;20502;-75
2024/02/18 02:09:37;;;;;;;164.05;154.18;;;11.00;99.90;;;;;;5031780;28;20034;-75
2024/02/18 02:12:06;;;;;;;170.73;160.65;;;11.00;99.90;;;;;;5032501;28;20029;-74
2024/02/18 02:14:33;;;;;;;164.60;154.18;;;11.00;99.90;;;;;;5015832;28;20033;-75
2024/02/18 02:16:59;;;;;;;148.63;139.02;;;11.00;99.90;;;;;;5030829;28;20038;-74
2024/02/18 02:19:25;;;;;;;156.30;147.05;;;10.80;99.90;;;;;;5032433;28;20056;-75
2024/02/18 02:21:51;;;;;;;142.63;133.73;;;10.90;99.90;;;;;;5032044;28;20041;-75
2024/02/18 02:24:17;;;;;;;127.68;119.60;;;10.90;99.90;;;;;;5030814;28;20497;-75
2024/02/18 02:26:44;;;;;;;138.18;129.63;;;10.90;99.90;;;;;;5031081;28;20040;-74
2024/02/18 02:29:11;;;;;;;113.18;105.82;;;10.90;99.90;;;;;;5031478;28;20021;-75
2024/02/18 02:31:47;;;;;;;133.20;124.78;;;10.90;99.90;;;;;;5031834;28;20057;-75
2024/02/18 02:34:13;;;;;;;162.07;152.20;;;11.00;99.90;;;;;;5032342;28;20044;-74
2024/02/18 02:36:40;;;;;;;144.90;135.98;;;11.00;99.90;;;;;;5031632;28;20029;-75
2024/02/18 02:39:07;;;;;;;129.32;121.47;;;11.00;99.90;;;;;;5032191;28;20037;-75
2024/02/18 02:41:34;;;;;;;121.72;114.22;;;10.80;99.90;;;;;;5031345;28;20494;-75
2024/02/18 02:44:00;;;;;;;151.02;142.40;;;10.80;99.90;;;;;;5032455;28;20040;-75
2024/02/18 02:46:26;;;;;;;113.22;106.43;;;10.80;99.90;;;;;;5031562;28;20030;-75
2024/02/18 02:48:52;;;;;;;134.18;125.97;;;10.90;99.90;;;;;;5031266;28;20025;-75
2024/02/18 02:51:19;;;;;;;146.35;137.48;;;11.00;99.90;;;;;;5030925;28;20394;-75
2024/02/18 02:53:45;;;;;;;146.35;137.10;;;10.80;99.90;;;;;;5032306;28;20382;-75
2024/02/18 02:56:12;;;;;;;149.75;140.45;;;10.80;99.90;;;;;;5030349;28;20050;-75
2024/02/18 02:58:38;;;;;;;141.82;132.75;;;10.90;99.90;;;;;;5032263;28;20029;-75
2024/02/18 03:01:05;;;;;;;150.45;141.05;;;10.90;99.90;;;;;;5030972;28;20045;-75
2024/02/18 03:03:31;;;;;;;154.50;145.18;;;11.00;99.90;;;;;;5030375;28;20048;-75
2024/02/18 03:05:57;;;;;;;148.05;138.98;;;11.00;99.90;;;;;;5030300;28;20041;-75
2024/02/18 03:08:23;;;;;;;149.48;140.48;;;11.00;99.90;;;;;;5036917;28;20382;-75
2024/02/18 03:10:49;;;;;;;150.05;140.50;;;11.00;99.90;;;;;;5036746;28;20048;-75
2024/02/18 03:13:15;;;;;;;148.13;139.13;;;11.00;99.90;;;;;;5037232;28;20422;-75
2024/02/18 03:15:42;;;;;;;144.80;135.93;;;11.00;99.90;;;;;;5036251;28;20030;-75
2024/02/18 03:18:09;;;;;;;167.57;156.98;;;11.10;99.90;;;;;;5036720;28;20164;-75
2024/02/18 03:20:35;;;;;;;156.35;147.40;;;11.10;99.90;;;;;;5036016;28;20057;-75
2024/02/18 03:23:01;;;;;;;144.07;135.82;;;11.10;99.90;;;;;;5036885;28;20022;-75
2024/02/18 03:25:27;;;;;;;162.43;152.98;;;11.10;99.90;;;;;;5036717;28;20037;-75
2024/02/18 03:27:53;;;;;;;144.48;136.18;;;11.10;99.90;;;;;;5036991;28;20025;-75
2024/02/18 03:30:20;;;;;;;125.57;118.05;;;11.10;99.90;;;;;;5036152;28;20037;-75
2024/02/18 03:32:46;;;;;;;146.13;137.02;;;10.90;99.90;;;;;;5036162;28;20041;-74
2024/02/18 03:35:12;;;;;;;150.45;141.27;;;10.90;99.90;;;;;;5036092;28;20033;-75
2024/02/18 03:37:38;;;;;;;162.70;152.85;;;10.90;99.90;;;;;;5037979;28;20038;-75
2024/02/18 03:40:06;;;;;;;138.23;130.05;;;10.80;99.90;;;;;;5038284;28;20042;-74
2024/02/18 03:42:32;;;;;;;133.70;125.80;;;10.70;99.90;;;;;;5037747;28;20057;-75
2024/02/18 03:44:58;;;;;;;130.23;122.72;;;10.60;99.90;;;;;;5038358;28;20060;-75
2024/02/18 03:47:24;;;;;;;120.95;114.03;;;10.70;99.90;;;;;;5037652;28;20041;-74
2024/02/18 03:49:50;;;;;;;126.82;119.28;;;10.80;99.90;;;;;;5037770;28;20033;-75
2024/02/18 03:52:16;;;;;;;132.07;124.15;;;10.80;99.90;;;;;;5037987;28;20041;-75
2024/02/18 03:54:43;;;;;;;145.82;136.95;;;10.80;99.90;;;;;;5038298;28;20049;-73
2024/02/18 03:57:10;;;;;;;131.68;123.75;;;10.80;99.90;;;;;;5038115;28;20386;-75
2024/02/18 03:59:36;;;;;;;138.45;130.27;;;10.80;99.90;;;;;;5038266;28;20044;-75
2024/02/18 04:02:02;;;;;;;129.60;121.40;;;10.80;99.90;;;;;;5037180;28;20041;-75
2024/02/18 04:04:28;;;;;;;114.22;107.45;;;10.80;99.90;;;;;;5037729;28;20033;-75
2024/02/18 04:06:54;;;;;;;124.22;116.90;;;10.90;99.90;;;;;;5037844;28;20044;-75
2024/02/18 04:09:20;;;;;;;155.27;145.05;;;10.80;99.90;;;;;;5038232;28;20025;-75
2024/02/18 04:11:46;;;;;;;137.90;129.70;;;10.80;99.90;;;;;;5037809;28;20037;-75
2024/02/18 04:14:13;;;;;;;143.25;134.77;;;10.80;99.90;;;;;;5038099;28;20390;-75
2024/02/18 04:16:39;;;;;;;131.88;123.75;;;10.80;99.90;;;;;;5032640;28;20060;-75
2024/02/18 04:19:06;;;;;;;139.15;130.73;;;10.80;99.90;;;;;;5034139;28;20517;-75
2024/02/18 04:21:32;;;;;;;161.05;151.20;;;10.80;99.90;;;;;;5034101;28;20049;-75
2024/02/18 04:23:58;;;;;;;179.32;168.98;;;10.80;99.90;;;;;;5034834;28;20036;-75
2024/02/18 04:26:24;;;;;;;163.68;154.23;;;10.80;99.90;;;;;;5034547;28;20029;-75
2024/02/18 04:28:50;;;;;;;164.05;154.77;;;10.80;99.90;;;;;;5034407;28;20049;-75
2024/02/18 04:31:17;;;;;;;170.43;160.10;;;10.80;99.90;;;;;;5034101;28;20398;-75
2024/02/18 04:33:43;;;;;;;184.93;173.80;;;10.90;99.90;;;;;;5033838;28;20038;-75
2024/02/18 04:36:11;;;;;;;150.30;141.50;;;10.90;99.90;;;;;;5034351;28;20474;-74
2024/02/18 04:38:37;;;;;;;158.00;148.57;;;10.90;99.90;;;;;;5034423;28;20038;-74
2024/02/18 04:41:03;;;;;;;157.90;148.77;;;11.00;99.90;;;;;;5034035;28;20041;-75
2024/02/18 04:43:29;;;;;;;159.82;150.65;;;10.90;99.90;;;;;;5034521;28;20391;-75
2024/02/18 04:45:55;;;;;;;172.23;162.35;;;11.00;99.90;;;;;;5033754;28;20037;-75
2024/02/18 04:48:22;;;;;;;171.98;161.93;;;10.90;99.90;;;;;;5034046;28;20030;-75
2024/02/18 04:50:48;;;;;;;161.57;152.13;;;10.90;99.90;;;;;;5033693;28;20017;-75
2024/02/18 04:53:14;;;;;;;160.10;151.00;;;10.90;99.90;;;;;;5034125;28;20044;-75
2024/02/18 04:55:40;;;;;;;181.68;170.73;;;10.90;99.90;;;;;;5033792;28;20029;-75
2024/02/18 04:58:06;;;;;;;161.90;152.40;;;10.80;99.90;;;;;;5034234;28;20033;-75
2024/02/18 05:00:32;;;;;;;166.15;156.27;;;10.80;99.90;;;;;;5033399;28;20045;-75
2024/02/18 05:02:58;;;;;;;139.10;130.88;;;10.80;99.90;;;;;;5033694;28;20032;-75
2024/02/18 05:05:25;;;;;;;138.20;130.05;;;10.90;99.90;;;;;;5033686;28;20041;-74
2024/02/18 05:07:52;;;;;;;156.70;147.40;;;10.90;99.90;;;;;;5034080;28;20040;-75
2024/02/18 05:10:18;;;;;;;162.05;152.52;;;10.90;99.90;;;;;;5033305;28;20379;-75
2024/02/18 05:12:44;;;;;;;168.85;159.05;;;10.90;99.90;;;;;;5033986;28;20037;-74
2024/02/18 05:15:10;;;;;;;175.05;164.65;;;10.80;99.90;;;;;;5033129;28;20390;-75
2024/02/18 05:17:36;;;;;;;196.25;184.65;;;10.80;99.90;;;;;;5033579;28;20036;-75
2024/02/18 05:20:03;;;;;;;181.82;171.30;;;10.80;99.90;;;;;;5033886;28;20100;-75
2024/02/18 05:22:29;;;;;;;191.25;180.23;;;10.70;99.90;;;;;;5032904;28;20037;-75
2024/02/18 05:24:56;;;;;;;168.55;159.02;;;10.70;99.90;;;;;;5032838;28;20394;-75
2024/02/18 05:27:22;;;;;;;176.57;166.52;;;10.70;99.90;;;;;;5032786;28;20025;-75
2024/02/18 05:29:48;;;;;;;180.60;166.18;;;10.70;99.90;;;;;;5033552;28;20032;-75
2024/02/18 05:32:14;;;;;;;184.23;173.20;;;10.70;99.90;;;;;;5032453;28;20368;-75
2024/02/18 05:34:40;;;;;;;136.88;128.68;;;10.60;99.90;;;;;;5033440;28;20036;-75
2024/02/18 05:37:06;;;;;;;124.00;116.85;;;10.70;99.90;;;;;;5032928;28;20052;-75
2024/02/18 05:39:33;;;;;;;134.85;126.82;;;10.70;99.90;;;;;;5033320;28;20033;-75
2024/02/18 05:41:59;;;;;;;154.00;145.00;;;10.70;99.90;;;;;;5032842;28;20053;-75
2024/02/18 05:44:25;;;;;;;132.00;124.00;;;10.70;99.90;;;;;;5033270;28;20404;-75
2024/02/18 05:46:51;;;;;;;159.13;149.68;;;10.70;99.90;;;;;;5032694;28;20037;-75
2024/02/18 05:49:17;;;;;;;167.95;157.98;;;10.70;99.90;;;;;;5032926;28;20406;-75
2024/02/18 05:51:43;;;;;;;177.23;166.80;;;10.70;99.90;;;;;;5032975;28;20041;-75
2024/02/18 05:54:09;;;;;;;153.02;143.80;;;10.80;99.90;;;;;;5033084;28;20051;-74
2024/02/18 05:56:35;;;;;;;162.63;152.30;;;10.80;99.90;;;;;;5028674;28;20033;-75
2024/02/18 05:59:01;;;;;;;121.53;114.47;;;10.80;99.90;;;;;;5024475;28;20037;-74
2024/02/18 06:01:27;;;;;;;136.60;128.38;;;10.80;99.90;;;;;;5031979;28;20060;-75
2024/02/18 06:03:53;;;;;;;138.57;130.15;;;10.80;99.90;;;;;;5032983;28;20410;-75
2024/02/18 06:06:19;;;;;;;125.93;118.85;;;10.70;99.90;;;;;;5032471;28;20038;-75
2024/02/18 06:08:46;;;;;;;120.88;113.72;;;10.60;99.90;;;;;;5031759;28;20029;-74
2024/02/18 06:11:12;;;;;;;138.00;129.60;;;10.60;99.90;;;;;;5032297;28;20037;-75
2024/02/18 06:13:41;;;;;;;146.30;137.32;;;10.60;99.90;;;;;;5032535;28;20115;-74
2024/02/18 06:16:07;;;;;;;131.60;123.85;;;10.70;99.90;;;;;;5031569;28;20482;-74
2024/02/18 06:18:33;;;;;;;157.27;147.95;;;10.70;99.90;;;;;;5032794;28;20029;-75
2024/02/18 06:20:59;;;;;;;417.17;176.15;;;10.70;99.90;;;;;;5032295;28;20371;-75
2024/02/18 06:23:25;;;;;;;158.55;149.38;;;10.70;99.90;;;;;;5032563;28;20033;-74
2024/02/18 06:25:51;;;;;;;184.65;174.52;;;10.70;99.90;;;;;;5031909;28;20038;-75
2024/02/18 06:28:17;;;;;;;187.55;177.00;;;10.70;99.90;;;;;;5031356;28;20029;-75
2024/02/18 06:30:43;;;;;;;165.75;156.52;;;10.70;99.90;;;;;;5031722;28;20052;-75
2024/02/18 06:33:09;;;;;;;174.52;164.93;;;10.70;99.90;;;;;;5032403;28;20378;-75
2024/02/18 06:35:36;;;;;;;164.50;155.13;;;10.70;99.90;;;;;;5032143;28;20032;-75
2024/02/18 06:38:02;;;;;;;164.07;154.95;;;10.70;99.90;;;;;;5031480;28;20394;-75
2024/02/18 06:40:28;;;;;;;185.10;174.75;;;10.60;99.90;;;;;;5031873;28;20050;-75
2024/02/18 06:42:54;;;;;;;168.60;159.20;;;10.70;99.90;;;;;;5031994;28;20093;-75
2024/02/18 06:45:20;;;;;;;185.63;175.25;;;10.60;99.90;;;;;;5031442;28;20033;-75
2024/02/18 06:47:47;;;;;;;195.43;184.23;;;10.60;99.90;;;;;;5032291;28;20044;-75
2024/02/18 06:50:15;;;;;;;197.48;186.30;;;10.70;99.90;;;;;;5031789;28;20021;-75
2024/02/18 06:52:41;;;;;;;209.52;197.27;;;10.70;99.90;;;;;;5031242;28;20509;-75
2024/02/18 06:55:07;;;;;;;204.10;192.63;;;10.70;99.90;;;;;;5032145;28;20033;-75
2024/02/18 06:57:33;;;;;;;190.63;180.02;;;10.70;99.90;;;;;;5030974;28;20048;-75
2024/02/18 07:00:00;;;;;;;194.00;183.15;;;10.70;99.90;;;;;;5031041;28;20041;-75
2024/02/18 07:02:26;;;;;;;194.13;183.35;;;10.70;99.90;;;;;;5031413;28;20056;-75
2024/02/18 07:04:53;;;;;;;198.23;186.98;;;10.70;99.90;;;;;;5032147;28;20029;-75
2024/02/18 07:07:19;;;;;;;192.27;181.73;;;10.70;99.90;;;;;;5032287;28;20025;-75
2024/02/18 07:09:47;;;;;;;187.63;176.77;;;10.70;99.90;;;;;;5032330;28;20045;-75
2024/02/18 07:12:13;;;;;;;197.55;186.73;;;10.70;99.90;;;;;;5032342;28;20394;-76
2024/02/18 07:14:39;;;;;;;218.07;205.88;;;10.70;99.90;;;;;;5032037;28;20044;-75
2024/02/18 07:17:05;;;;;;;205.10;193.20;;;10.80;99.90;;;;;;5031433;28;20104;-76
2024/02/18 07:19:31;;;;;;;227.40;214.15;;;10.80;99.90;;;;;;5030156;28;20049;-76
2024/02/18 07:21:57;;;;;;;222.48;209.43;;;10.80;99.90;;;;;;5032346;28;20374;-76
2024/02/18 07:24:23;;;;;;;239.25;225.55;;;10.80;99.90;;;;;;5031828;28;20494;-75
2024/02/18 07:26:50;;;;;;;225.05;212.10;;;10.90;99.90;;;;;;5031417;28;20029;-75
2024/02/18 07:29:16;;;;;;;230.57;217.13;;;10.80;99.90;;;;;;5031118;28;20364;-75
2024/02/18 07:31:42;;;;;;;232.75;219.32;;;10.90;99.90;;;;;;5023589;28;20030;-75
2024/02/18 07:34:08;;;;;;;233.60;220.63;;;10.90;99.90;;;;;;5031855;28;20040;-75
2024/02/18 07:36:34;;;;;;;236.20;222.38;;;10.90;99.90;;;;;;5031898;28;20026;-75
2024/02/18 07:39:00;;;;;;;236.88;223.15;;;10.90;99.90;;;;;;5031711;28;20040;-75
2024/02/18 07:41:26;;;;;;;221.50;208.75;;;10.90;99.90;;;;;;5031118;28;20050;-75
2024/02/18 07:43:52;;;;;;;202.23;190.52;;;10.90;99.90;;;;;;5031843;28;20025;-75
2024/02/18 07:46:19;;;;;;;228.60;215.32;;;10.90;99.90;;;;;;5031313;28;20037;-76
2024/02/18 07:48:45;;;;;;;248.15;234.18;;;10.90;99.90;;;;;;5031209;28;20033;-75
2024/02/18 07:51:11;;;;;;;279.52;262.88;;;10.90;99.90;;;;;;5034492;28;20038;-76
2024/02/18 07:53:37;;;;;;;256.17;240.68;;;10.80;99.90;;;;;;5035490;28;20034;-76
2024/02/18 07:56:03;;;;;;;258.33;243.23;;;10.80;99.90;;;;;;5034860;28;20493;-76
2024/02/18 07:58:29;;;;;;;250.98;236.07;;;10.80;99.90;;;;;;5035434;28;20041;-75
2024/02/18 08:00:56;;;;;;;261.13;245.98;;;10.80;99.90;;;;;;5032605;28;20038;-75
2024/02/18 08:03:22;;;;;;;247.48;233.13;;;10.70;99.90;;;;;;5017354;28;20505;-76
2024/02/18 08:05:48;;;;;;;222.75;209.95;;;10.80;99.90;;;;;;5034786;28;20040;-75
2024/02/18 08:08:14;;;;;;;221.05;208.48;;;10.70;99.90;;;;;;5035238;28;20034;-75
2024/02/18 08:10:40;;;;;;;212.45;200.15;;;10.70;99.90;;;;;;5034445;28;20044;-76
2024/02/18 08:13:09;;;;;;;240.85;226.55;;;10.70;99.90;;;;;;5034933;28;20037;-76
2024/02/18 08:15:35;;;;;;;219.65;206.82;;;10.70;99.90;;;;;;5033881;28;20041;-75
2024/02/18 08:18:02;;;;;;;210.75;198.80;;;10.80;99.90;;;;;;5034982;28;20028;-76
2024/02/18 08:20:28;;;;;;;200.93;189.35;;;10.80;99.90;;;;;;5033871;28;20057;-76
2024/02/18 08:22:54;;;;;;;181.75;171.55;;;10.80;99.90;;;;;;5033954;28;20029;-76
2024/02/18 08:25:20;;;;;;;208.85;197.05;;;10.80;99.90;;;;;;5034250;28;20041;-76
2024/02/18 08:27:47;;;;;;;198.75;187.65;;;10.80;99.90;;;;;;5034956;28;20040;-75
2024/02/18 08:30:14;;;;;;;201.55;190.20;;;10.80;99.90;;;;;;5034014;28;20386;-75
2024/02/18 08:32:40;;;;;;;198.85;187.60;;;10.80;99.90;;;;;;5034427;28;20045;-76
2024/02/18 08:35:06;;;;;;;204.45;192.52;;;10.80;99.90;;;;;;5034740;28;20034;-75
2024/02/18 08:37:32;;;;;;;214.10;201.93;;;10.80;99.90;;;;;;5034423;28;20033;-75
2024/02/18 08:39:58;;;;;;;218.90;206.50;;;10.90;99.90;;;;;;5033951;28;20108;-75
2024/02/18 08:42:25;;;;;;;192.85;181.93;;;10.90;99.90;;;;;;5034096;28;20478;-76
2024/02/18 08:44:51;;;;;;;236.70;221.77;;;10.90;99.90;;;;;;5034418;28;20042;-75
2024/02/18 08:47:17;;;;;;;221.73;208.82;;;10.90;99.90;;;;;;5034013;28;20049;-76
2024/02/18 08:49:43;;;;;;;239.52;225.20;;;11.00;99.90;;;;;;5034402;28;20037;-76
2024/02/18 08:52:09;;;;;;;233.52;219.57;;;11.00;99.90;;;;;;5034008;28;20036;-75
2024/02/18 08:54:36;;;;;;;211.82;198.70;;;11.10;99.90;;;;;;5034084;28;20030;-75
2024/02/18 08:57:02;;;;;;;193.38;182.40;;;11.00;99.90;;;;;;5033699;28;20041;-75
2024/02/18 08:59:28;;;;;;;168.02;158.45;;;11.00;99.90;;;;;;5034265;28;20033;-75
2024/02/18 09:01:58;;;;;;;178.52;167.63;;;11.10;99.90;;;;;;5032222;28;20089;-75
2024/02/18 09:04:24;;;;;;;160.55;150.98;;;11.10;99.90;;;;;;5033104;28;20494;-75
2024/02/18 09:06:50;;;;;;;149.10;140.35;;;11.10;99.90;;;;;;5033872;28;20040;-75
2024/02/18 09:09:16;;;;;;;200.88;189.02;;;11.10;99.90;;;;;;5033620;28;20339;-75
2024/02/18 09:11:43;;;;;;;184.45;173.73;;;11.10;99.90;;;;;;5015994;28;20029;-75
2024/02/18 09:14:10;;;;;;;186.10;174.50;;;11.10;99.90;;;;;;5032269;28;20049;-75
2024/02/18 09:16:36;;;;;;;202.68;190.13;;;11.10;99.90;;;;;;5015593;28;20036;-75
2024/02/18 09:19:02;;;;;;;220.30;206.68;;;11.10;99.90;;;;;;5038204;28;20036;-75
2024/02/18 09:21:28;;;;;;;226.27;212.38;;;11.10;99.90;;;;;;5041039;28;20041;-75
2024/02/18 09:23:54;;;;;;;240.30;224.15;;;11.10;99.90;;;;;;5032865;28;20401;-76
2024/02/18 09:26:20;;;;;;;241.30;227.00;;;11.10;99.90;;;;;;5033441;28;20034;-75
2024/02/18 09:28:46;;;;;;;187.82;176.98;;;11.20;99.90;;;;;;5033794;28;20623;-74
2024/02/18 09:31:14;;;;;;;209.73;197.40;;;11.10;99.90;;;;;;5030962;28;20036;-75
2024/02/18 09:33:43;;;;;;;211.07;198.52;;;11.10;99.90;;;;;;5033220;28;20041;-75
2024/02/18 09:36:09;;;;;;;242.02;227.30;;;11.10;99.90;;;;;;5033176;28;20378;-75
2024/02/18 09:38:37;;;;;;;223.77;210.77;;;11.10;99.90;;;;;;5032829;28;20045;-75
2024/02/18 09:41:03;;;;;;;238.77;224.45;;;11.20;99.90;;;;;;5031589;28;20041;-75
2024/02/18 09:43:38;;;;;;;266.25;250.57;;;11.20;99.90;;;;;;5033330;28;20505;-75
2024/02/18 09:46:05;;;;;;;260.38;245.13;;;11.30;99.90;;;;;;5031344;28;20037;-75
2024/02/18 09:48:31;;;;;;;327.17;306.35;;;11.40;99.90;;;;;;5031889;28;20025;-75
2024/02/18 09:50:57;;;;;;;240.95;226.57;;;11.50;99.90;;;;;;5031270;28;20068;-75
2024/02/18 09:53:25;;;;;;;272.25;255.50;;;11.50;99.90;;;;;;5033019;28;20025;-76
2024/02/18 09:55:51;;;;;;;243.15;228.10;;;11.60;99.90;;;;;;5014800;28;20038;-75
2024/02/18 09:58:19;;;;;;;314.85;295.65;;;11.60;99.90;;;;;;5033182;28;20029;-75
2024/02/18 10:00:45;;;;;;;293.92;276.27;;;11.60;99.90;;;;;;5032221;28;20383;-74
2024/02/18 10:03:11;;;;;;;270.40;253.98;;;11.60;99.90;;;;;;5031531;28;20042;-75
2024/02/18 10:05:37;;;;;;;300.90;282.13;;;11.70;99.90;;;;;;5031171;28;20037;-75
2024/02/18 10:08:04;;;;;;;257.65;242.88;;;11.60;99.90;;;;;;5033271;28;20093;-75
2024/02/18 10:10:34;;;;;;;265.10;249.88;;;11.60;99.90;;;;;;5032538;28;20029;-76
2024/02/18 10:13:04;;;;;;;271.80;255.70;;;11.60;99.90;;;;;;5032015;28;20462;-76
2024/02/18 10:15:34;;;;;;;296.20;278.30;;;11.60;99.90;;;;;;5032119;28;20049;-76
2024/02/18 10:18:03;;;;;;;256.55;241.73;;;11.70;99.90;;;;;;5032628;28;20489;-75
2024/02/18 10:20:30;;;;;;;323.48;303.27;;;11.70;99.90;;;;;;5029781;28;20049;-76
2024/02/18 10:22:56;;;;;;;251.38;236.93;;;11.70;99.90;;;;;;5032693;28;20030;-75
2024/02/18 10:25:22;;;;;;;290.88;273.58;;;11.70;99.90;;;;;;5063694;28;20038;-76
2024/02/18 10:27:48;;;;;;;251.02;235.55;;;11.70;99.90;;;;;;5031293;28;20037;-76
2024/02/18 10:30:15;;;;;;;252.85;237.10;;;11.70;99.90;;;;;;5031628;28;20041;-76
2024/02/18 10:32:41;;;;;;;297.80;279.50;;;11.80;99.90;;;;;;5031035;28;20045;-76
2024/02/18 10:35:07;;;;;;;251.60;236.88;;;11.80;99.90;;;;;;5032008;28;20038;-76
2024/02/18 10:37:37;;;;;;;265.73;249.57;;;11.80;99.90;;;;;;5032179;28;20459;-76
2024/02/18 10:40:19;;;;;;;352.90;328.98;;;11.80;99.90;;;;;;5032531;28;20029;-76
2024/02/18 10:42:51;;;;;;;280.02;262.38;;;11.70;99.90;;;;;;5011469;28;20411;-76
2024/02/18 10:45:18;;;;;;;223.68;210.25;;;11.70;99.90;;;;;;5012774;28;20049;-76
2024/02/18 10:47:52;;;;;;;286.02;267.80;;;11.70;99.90;;;;;;5015097;28;20042;-76
2024/02/18 10:50:18;;;;;;;274.05;257.00;;;11.70;99.90;;;;;;5031509;28;20630;-76
2024/02/18 10:53:02;;;;;;;291.02;272.67;;;11.80;99.90;;;;;;5031279;28;20034;-76
2024/02/18 10:55:42;;;;;;;285.48;266.05;;;11.80;99.90;;;;;;5030944;28;20033;-75
2024/02/18 10:58:13;;;;;;;241.35;227.20;;;11.90;99.90;;;;;;5014324;28;20053;-76
2024/02/18 11:00:41;;;;;;;269.92;254.18;;;11.90;99.90;;;;;;5030170;28;20383;-76
2024/02/18 11:03:27;;;;;;;259.55;243.73;;;11.90;99.90;;;;;;5014855;28;20025;-76
2024/02/18 11:05:53;;;;;;;237.60;223.18;;;12.00;99.90;;;;;;5030228;28;20036;-76
2024/02/18 11:08:19;;;;;;;260.92;244.43;;;12.00;99.90;;;;;;5032054;28;20026;-76
2024/02/18 11:10:45;;;;;;;242.73;228.38;;;12.00;99.90;;;;;;5030707;28;20038;-76
2024/02/18 11:13:12;;;;;;;279.58;262.55;;;12.00;99.90;;;;;;5031005;28;20040;-76
2024/02/18 11:15:38;;;;;;;303.05;284.17;;;12.10;99.90;;;;;;5031395;28;20044;-76
2024/02/18 11:18:04;;;;;;;311.13;292.00;;;12.10;99.90;;;;;;5030757;28;20386;-77
2024/02/18 11:20:30;;;;;;;334.23;312.55;;;12.00;99.90;;;;;;5030051;28;20040;-76
2024/02/18 11:22:57;;;;;;;302.58;282.85;;;12.10;99.90;;;;;;5032041;28;20034;-76
2024/02/18 11:25:23;;;;;;;354.25;330.70;;;12.00;99.90;;;;;;5033752;28;20036;-77
2024/02/18 11:27:49;;;;;;;344.30;321.45;;;12.10;99.90;;;;;;5035750;28;20037;-77
2024/02/18 11:30:16;;;;;;;333.80;311.23;;;12.10;99.90;;;;;;5034021;28;20379;-76
2024/02/18 11:32:42;;;;;;;332.02;309.17;;;12.10;99.90;;;;;;5035556;28;20026;-76
2024/02/18 11:35:15;;;;;;;309.90;289.85;;;12.20;99.90;;;;;;5034609;28;20025;-76
2024/02/18 11:37:41;;;;;;;265.80;249.27;;;12.20;99.90;;;;;;5016000;28;20474;-76
2024/02/18 11:40:11;;;;;;;330.00;307.48;;;12.20;99.90;;;;;;5035908;28;20037;-76
2024/02/18 11:42:38;;;;;;;295.88;277.35;;;12.20;99.90;;;;;;5014708;28;20066;-76
2024/02/18 11:45:11;;;;;;;303.85;284.40;;;12.20;99.90;;;;;;5014196;28;20045;-75
2024/02/18 11:47:43;;;;;;;297.30;278.05;;;12.30;99.90;;;;;;5030871;28;20479;-76
2024/02/18 11:50:09;;;;;;;285.02;268.00;;;12.30;99.90;;;;;;5029294;28;20021;-77
2024/02/18 11:52:35;;;;;;;305.60;286.92;;;12.30;99.90;;;;;;5034391;28;20021;-76
2024/02/18 11:55:09;;;;;;;312.75;294.25;;;12.30;99.90;;;;;;5033855;28;20049;-76
2024/02/18 11:57:35;;;;;;;359.25;336.95;;;12.40;99.90;;;;;;5034211;28;20048;-76
2024/02/18 12:00:03;;;;;;;353.95;331.08;;;12.50;99.90;;;;;;5035443;28;20037;-76
2024/02/18 12:02:29;;;;;;;317.52;297.38;;;12.50;99.90;;;;;;5033386;28;20050;-76
2024/02/18 12:04:57;;;;;;;317.00;296.55;;;12.60;99.90;;;;;;5035089;28;20041;-76